sensor_id;sensor_type;location;lat;lon;timestamp;pressure;altitude;pressure_sealevel;temperature
74060;BMP280;62414;53.436;8.828;2022-11-14T00:00:11;101773.31;;;7.93
74060;BMP280;62414;53.436;8.828;2022-11-14T00:02:58;101786.03;;;7.92
74060;BMP280;62414;53.436;8.828;2022-11-14T00:05:44;101786.81;;;7.93
74060;BMP280;62414;53.436;8.828;2022-11-14T00:08:28;101777.94;;;7.96
74060;BMP280;62414;53.436;8.828;2022-11-14T00:11:12;101764.84;;;7.94
74060;BMP280;62414;53.436;8.828;2022-11-14T00:13:56;101758.69;;;7.97
74060;BMP280;62414;53.436;8.828;2022-11-14T00:16:41;101754.47;;;8.00
74060;BMP280;62414;53.436;8.828;2022-11-14T00:19:25;101744.84;;;7.99
74060;BMP280;62414;53.436;8.828;2022-11-14T00:22:09;101752.16;;;8.02
74060;BMP280;62414;53.436;8.828;2022-11-14T00:24:53;101747.13;;;8.04
74060;BMP280;62414;53.436;8.828;2022-11-14T00:27:37;101742.88;;;8.10
74060;BMP280;62414;53.436;8.828;2022-11-14T00:30:21;101749.47;;;8.13
74060;BMP280;62414;53.436;8.828;2022-11-14T00:33:06;101748.31;;;8.14
74060;BMP280;62414;53.436;8.828;2022-11-14T00:35:51;101744.81;;;8.09
74060;BMP280;62414;53.436;8.828;2022-11-14T00:38:35;101743.66;;;8.11
74060;BMP280;62414;53.436;8.828;2022-11-14T00:41:19;101749.06;;;8.11
74060;BMP280;62414;53.436;8.828;2022-11-14T00:44:03;101746.75;;;8.13
74060;BMP280;62414;53.436;8.828;2022-11-14T00:46:47;101750.63;;;8.12
74060;BMP280;62414;53.436;8.828;2022-11-14T00:49:33;101742.88;;;8.10
74060;BMP280;62414;53.436;8.828;2022-11-14T00:52:17;101739.78;;;8.15
74060;BMP280;62414;53.436;8.828;2022-11-14T00:55:01;101742.13;;;8.17
74060;BMP280;62414;53.436;8.828;2022-11-14T00:57:45;101741.34;;;8.20
74060;BMP280;62414;53.436;8.828;2022-11-14T01:00:30;101737.84;;;8.16
74060;BMP280;62414;53.436;8.828;2022-11-14T01:03:14;101731.72;;;8.19
74060;BMP280;62414;53.436;8.828;2022-11-14T01:06:03;101737.09;;;8.19
74060;BMP280;62414;53.436;8.828;2022-11-14T01:08:49;101726.72;;;8.21
74060;BMP280;62414;53.436;8.828;2022-11-14T01:11:33;101730.19;;;8.21
74060;BMP280;62414;53.436;8.828;2022-11-14T01:14:17;101724.03;;;8.14
74060;BMP280;62414;53.436;8.828;2022-11-14T01:17:02;101710.53;;;8.14
74060;BMP280;62414;53.436;8.828;2022-11-14T01:19:46;101712.88;;;8.12
74060;BMP280;62414;53.436;8.828;2022-11-14T01:22:31;101709.00;;;8.13
74060;BMP280;62414;53.436;8.828;2022-11-14T01:25:15;101713.59;;;8.16
74060;BMP280;62414;53.436;8.828;2022-11-14T01:27:59;101709.78;;;8.13
74060;BMP280;62414;53.436;8.828;2022-11-14T01:30:43;101703.22;;;8.11
74060;BMP280;62414;53.436;8.828;2022-11-14T01:33:28;101702.44;;;8.10
74060;BMP280;62414;53.436;8.828;2022-11-14T01:36:11;101697.81;;;8.11
74060;BMP280;62414;53.436;8.828;2022-11-14T01:38:57;101697.06;;;8.14
74060;BMP280;62414;53.436;8.828;2022-11-14T01:41:41;101692.06;;;8.12
74060;BMP280;62414;53.436;8.828;2022-11-14T01:44:43;101689.34;;;8.12
74060;BMP280;62414;53.436;8.828;2022-11-14T01:47:30;101682.03;;;8.13
74060;BMP280;62414;53.436;8.828;2022-11-14T01:50:15;101678.53;;;8.16
74060;BMP280;62414;53.436;8.828;2022-11-14T01:52:59;101672.75;;;8.17
74060;BMP280;62414;53.436;8.828;2022-11-14T01:55:45;101674.31;;;8.18
74060;BMP280;62414;53.436;8.828;2022-11-14T01:58:29;101672.00;;;8.09
74060;BMP280;62414;53.436;8.828;2022-11-14T02:01:13;101660.06;;;8.11
74060;BMP280;62414;53.436;8.828;2022-11-14T02:03:58;101656.22;;;8.08
74060;BMP280;62414;53.436;8.828;2022-11-14T02:06:43;101643.88;;;8.07
74060;BMP280;62414;53.436;8.828;2022-11-14T02:09:31;101639.28;;;8.11
74060;BMP280;62414;53.436;8.828;2022-11-14T02:12:18;101640.44;;;8.06
74060;BMP280;62414;53.436;8.828;2022-11-14T02:15:03;101638.09;;;8.05
74060;BMP280;62414;53.436;8.828;2022-11-14T02:17:46;101628.47;;;8.04
74060;BMP280;62414;53.436;8.828;2022-11-14T02:20:35;101639.25;;;8.04
74060;BMP280;62414;53.436;8.828;2022-11-14T02:23:27;101626.56;;;8.08
74060;BMP280;62414;53.436;8.828;2022-11-14T02:26:11;101626.97;;;8.03
74060;BMP280;62414;53.436;8.828;2022-11-14T02:28:55;101611.53;;;8.03
74060;BMP280;62414;53.436;8.828;2022-11-14T02:31:39;101612.28;;;8.04
74060;BMP280;62414;53.436;8.828;2022-11-14T02:34:23;101615.00;;;8.00
74060;BMP280;62414;53.436;8.828;2022-11-14T02:37:09;101614.63;;;7.98
74060;BMP280;62414;53.436;8.828;2022-11-14T02:39:52;101608.09;;;7.99
74060;BMP280;62414;53.436;8.828;2022-11-14T02:42:36;101606.94;;;7.97
74060;BMP280;62414;53.436;8.828;2022-11-14T02:45:20;101598.47;;;7.91
74060;BMP280;62414;53.436;8.828;2022-11-14T02:48:05;101602.72;;;7.89
74060;BMP280;62414;53.436;8.828;2022-11-14T02:50:49;101604.66;;;7.88
74060;BMP280;62414;53.436;8.828;2022-11-14T02:53:34;101594.22;;;7.87
74060;BMP280;62414;53.436;8.828;2022-11-14T02:56:18;101586.53;;;7.85
74060;BMP280;62414;53.436;8.828;2022-11-14T02:59:02;101594.66;;;7.78
74060;BMP280;62414;53.436;8.828;2022-11-14T03:01:46;101584.66;;;7.78
74060;BMP280;62414;53.436;8.828;2022-11-14T03:04:30;101582.31;;;7.77
74060;BMP280;62414;53.436;8.828;2022-11-14T03:07:13;101591.19;;;7.74
74060;BMP280;62414;53.436;8.828;2022-11-14T03:09:59;101583.09;;;7.70
74060;BMP280;62414;53.436;8.828;2022-11-14T03:12:43;101578.84;;;7.76
74060;BMP280;62414;53.436;8.828;2022-11-14T03:15:27;101576.56;;;7.78
74060;BMP280;62414;53.436;8.828;2022-11-14T03:18:11;101575.38;;;7.72
74060;BMP280;62414;53.436;8.828;2022-11-14T03:20:55;101572.31;;;7.70
74060;BMP280;62414;53.436;8.828;2022-11-14T03:23:39;101576.53;;;7.71
74060;BMP280;62414;53.436;8.828;2022-11-14T03:26:25;101586.19;;;7.69
74060;BMP280;62414;53.436;8.828;2022-11-14T03:29:09;101579.25;;;7.68
74060;BMP280;62414;53.436;8.828;2022-11-14T03:31:53;101579.25;;;7.64
74060;BMP280;62414;53.436;8.828;2022-11-14T03:34:36;101581.19;;;7.57
74060;BMP280;62414;53.436;8.828;2022-11-14T03:37:20;101575.78;;;7.60
74060;BMP280;62414;53.436;8.828;2022-11-14T03:40:06;101577.34;;;7.58
74060;BMP280;62414;53.436;8.828;2022-11-14T03:42:51;101576.94;;;7.59
74060;BMP280;62414;53.436;8.828;2022-11-14T03:45:35;101566.56;;;7.58
74060;BMP280;62414;53.436;8.828;2022-11-14T03:48:19;101562.69;;;7.59
74060;BMP280;62414;53.436;8.828;2022-11-14T03:51:04;101558.84;;;7.60
74060;BMP280;62414;53.436;8.828;2022-11-14T03:53:48;101551.91;;;7.62
74060;BMP280;62414;53.436;8.828;2022-11-14T03:56:32;101542.31;;;7.58
74060;BMP280;62414;53.436;8.828;2022-11-14T03:59:17;101540.41;;;7.55
74060;BMP280;62414;53.436;8.828;2022-11-14T04:02:01;101535.38;;;7.57
74060;BMP280;62414;53.436;8.828;2022-11-14T04:04:45;101529.22;;;7.56
74060;BMP280;62414;53.436;8.828;2022-11-14T04:07:29;101529.59;;;7.58
74060;BMP280;62414;53.436;8.828;2022-11-14T04:10:13;101526.94;;;7.55
74060;BMP280;62414;53.436;8.828;2022-11-14T04:12:56;101529.22;;;7.60
74060;BMP280;62414;53.436;8.828;2022-11-14T04:15:42;101528.06;;;7.57
74060;BMP280;62414;53.436;8.828;2022-11-14T04:18:26;101514.59;;;7.61
74060;BMP280;62414;53.436;8.828;2022-11-14T04:21:10;101516.53;;;7.57
74060;BMP280;62414;53.436;8.828;2022-11-14T04:23:54;101529.59;;;7.62
74060;BMP280;62414;53.436;8.828;2022-11-14T04:26:38;101516.50;;;7.60
74060;BMP280;62414;53.436;8.828;2022-11-14T04:29:22;101514.59;;;7.57
74060;BMP280;62414;53.436;8.828;2022-11-14T04:32:07;101504.22;;;7.56
74060;BMP280;62414;53.436;8.828;2022-11-14T04:34:51;101499.19;;;7.54
74060;BMP280;62414;53.436;8.828;2022-11-14T04:37:34;101505.38;;;7.44
74060;BMP280;62414;53.436;8.828;2022-11-14T04:40:19;101507.31;;;7.43
74060;BMP280;62414;53.436;8.828;2022-11-14T04:43:02;101492.69;;;7.44
74060;BMP280;62414;53.436;8.828;2022-11-14T04:45:47;101492.69;;;7.44
74060;BMP280;62414;53.436;8.828;2022-11-14T04:48:32;101494.19;;;7.49
74060;BMP280;62414;53.436;8.828;2022-11-14T04:51:16;101502.69;;;7.51
74060;BMP280;62414;53.436;8.828;2022-11-14T04:54:00;101492.31;;;7.46
74060;BMP280;62414;53.436;8.828;2022-11-14T04:56:44;101488.84;;;7.45
74060;BMP280;62414;53.436;8.828;2022-11-14T04:59:27;101489.97;;;7.44
74060;BMP280;62414;53.436;8.828;2022-11-14T05:02:11;101486.16;;;7.45
74060;BMP280;62414;53.436;8.828;2022-11-14T05:04:57;101481.50;;;7.49
74060;BMP280;62414;53.436;8.828;2022-11-14T05:07:41;101482.28;;;7.50
74060;BMP280;62414;53.436;8.828;2022-11-14T05:10:24;101478.06;;;7.45
74060;BMP280;62414;53.436;8.828;2022-11-14T05:13:08;101484.22;;;7.42
74060;BMP280;62414;53.436;8.828;2022-11-14T05:15:52;101480.00;;;7.45
74060;BMP280;62414;53.436;8.828;2022-11-14T05:18:36;101480.38;;;7.43
74060;BMP280;62414;53.436;8.828;2022-11-14T05:21:21;101469.59;;;7.43
74060;BMP280;62414;53.436;8.828;2022-11-14T05:24:06;101470.75;;;7.42
74060;BMP280;62414;53.436;8.828;2022-11-14T05:26:49;101476.91;;;7.46
74060;BMP280;62414;53.436;8.828;2022-11-14T05:29:33;101465.72;;;7.51
74060;BMP280;62414;53.436;8.828;2022-11-14T05:32:17;101463.03;;;7.51
74060;BMP280;62414;53.436;8.828;2022-11-14T05:35:01;101463.03;;;7.48
74060;BMP280;62414;53.436;8.828;2022-11-14T05:37:46;101459.59;;;7.44
74060;BMP280;62414;53.436;8.828;2022-11-14T05:40:30;101454.19;;;7.44
74060;BMP280;62414;53.436;8.828;2022-11-14T05:43:14;101455.75;;;7.45
74060;BMP280;62414;53.436;8.828;2022-11-14T05:45:58;101450.38;;;7.41
74060;BMP280;62414;53.436;8.828;2022-11-14T05:48:42;101448.44;;;7.42
74060;BMP280;62414;53.436;8.828;2022-11-14T05:51:26;101443.81;;;7.42
74060;BMP280;62414;53.436;8.828;2022-11-14T05:54:11;101452.28;;;7.41
74060;BMP280;62414;53.436;8.828;2022-11-14T05:56:55;101443.81;;;7.35
74060;BMP280;62414;53.436;8.828;2022-11-14T05:59:39;101452.69;;;7.32
74060;BMP280;62414;53.436;8.828;2022-11-14T06:02:23;101447.69;;;7.34
74060;BMP280;62414;53.436;8.828;2022-11-14T06:05:07;101444.22;;;7.34
74060;BMP280;62414;53.436;8.828;2022-11-14T06:07:55;101445.34;;;7.36
74060;BMP280;62414;53.436;8.828;2022-11-14T06:10:41;101441.13;;;7.35
74060;BMP280;62414;53.436;8.828;2022-11-14T06:13:25;101442.28;;;7.34
74060;BMP280;62414;53.436;8.828;2022-11-14T06:16:11;101450.00;;;7.32
74060;BMP280;62414;53.436;8.828;2022-11-14T06:18:55;101440.38;;;7.35
74060;BMP280;62414;53.436;8.828;2022-11-14T06:21:39;101435.75;;;7.32
74060;BMP280;62414;53.436;8.828;2022-11-14T06:24:23;101440.38;;;7.35
74060;BMP280;62414;53.436;8.828;2022-11-14T06:27:08;101445.72;;;7.38
74060;BMP280;62414;53.436;8.828;2022-11-14T06:29:52;101446.13;;;7.40
74060;BMP280;62414;53.436;8.828;2022-11-14T06:32:36;101439.97;;;7.43
74060;BMP280;62414;53.436;8.828;2022-11-14T06:35:20;101439.59;;;7.41
74060;BMP280;62414;53.436;8.828;2022-11-14T06:38:04;101437.66;;;7.38
74060;BMP280;62414;53.436;8.828;2022-11-14T06:40:48;101434.97;;;7.35
74060;BMP280;62414;53.436;8.828;2022-11-14T06:43:34;101445.34;;;7.36
74060;BMP280;62414;53.436;8.828;2022-11-14T06:46:19;101453.81;;;7.38
74060;BMP280;62414;53.436;8.828;2022-11-14T06:49:03;101452.66;;;7.36
74060;BMP280;62414;53.436;8.828;2022-11-14T06:51:47;101444.59;;;7.36
74060;BMP280;62414;53.436;8.828;2022-11-14T06:54:31;101439.97;;;7.36
74060;BMP280;62414;53.436;8.828;2022-11-14T06:57:15;101447.25;;;7.39
74060;BMP280;62414;53.436;8.828;2022-11-14T07:00:01;101440.75;;;7.30
74060;BMP280;62414;53.436;8.828;2022-11-14T07:02:45;101442.69;;;7.33
74060;BMP280;62414;53.436;8.828;2022-11-14T07:05:29;101443.81;;;7.35
74060;BMP280;62414;53.436;8.828;2022-11-14T07:08:13;101444.56;;;7.39
74060;BMP280;62414;53.436;8.828;2022-11-14T07:11:01;101456.91;;;7.37
74060;BMP280;62414;53.436;8.828;2022-11-14T07:13:45;101451.53;;;7.40
74060;BMP280;62414;53.436;8.828;2022-11-14T07:16:32;101446.50;;;7.46
74060;BMP280;62414;53.436;8.828;2022-11-14T07:19:17;101448.44;;;7.45
74060;BMP280;62414;53.436;8.828;2022-11-14T07:22:01;101456.13;;;7.47
74060;BMP280;62414;53.436;8.828;2022-11-14T07:24:44;101462.66;;;7.42
74060;BMP280;62414;53.436;8.828;2022-11-14T07:27:28;101464.94;;;7.47
74060;BMP280;62414;53.436;8.828;2022-11-14T07:30:13;101460.31;;;7.48
74060;BMP280;62414;53.436;8.828;2022-11-14T07:32:59;101464.94;;;7.47
74060;BMP280;62414;53.436;8.828;2022-11-14T07:35:43;101456.53;;;7.45
74060;BMP280;62414;53.436;8.828;2022-11-14T07:38:29;101460.75;;;7.46
74060;BMP280;62414;53.436;8.828;2022-11-14T07:41:14;101459.56;;;7.51
74060;BMP280;62414;53.436;8.828;2022-11-14T07:43:59;101460.72;;;7.50
74060;BMP280;62414;53.436;8.828;2022-11-14T07:46:42;101454.94;;;7.51
74060;BMP280;62414;53.436;8.828;2022-11-14T07:49:28;101455.72;;;7.52
74060;BMP280;62414;53.436;8.828;2022-11-14T07:52:12;101449.16;;;7.53
74060;BMP280;62414;53.436;8.828;2022-11-14T07:54:56;101442.25;;;7.56
74060;BMP280;62414;53.436;8.828;2022-11-14T07:57:40;101438.03;;;7.55
74060;BMP280;62414;53.436;8.828;2022-11-14T08:00:24;101442.63;;;7.54
74060;BMP280;62414;53.436;8.828;2022-11-14T08:03:08;101445.31;;;7.54
74060;BMP280;62414;53.436;8.828;2022-11-14T08:06:00;101435.34;;;7.37
74060;BMP280;62414;53.436;8.828;2022-11-14T08:08:44;101439.63;;;7.31
74060;BMP280;62414;53.436;8.828;2022-11-14T08:11:28;101431.13;;;7.25
74060;BMP280;62414;53.436;8.828;2022-11-14T08:14:12;101429.59;;;7.28
74060;BMP280;62414;53.436;8.828;2022-11-14T08:16:56;101428.44;;;7.25
74060;BMP280;62414;53.436;8.828;2022-11-14T08:19:39;101424.97;;;7.28
74060;BMP280;62414;53.436;8.828;2022-11-14T08:22:25;101427.31;;;7.26
74060;BMP280;62414;53.436;8.828;2022-11-14T08:25:09;101416.56;;;7.22
74060;BMP280;62414;53.436;8.828;2022-11-14T08:27:53;101420.75;;;7.27
74060;BMP280;62414;53.436;8.828;2022-11-14T08:30:37;101422.66;;;7.30
74060;BMP280;62414;53.436;8.828;2022-11-14T08:33:21;101412.66;;;7.34
74060;BMP280;62414;53.436;8.828;2022-11-14T08:36:06;101422.28;;;7.28
74060;BMP280;62414;53.436;8.828;2022-11-14T08:38:51;101424.97;;;7.28
74060;BMP280;62414;53.436;8.828;2022-11-14T08:41:35;101427.28;;;7.37
74060;BMP280;62414;53.436;8.828;2022-11-14T08:44:19;101428.81;;;7.38
74060;BMP280;62414;53.436;8.828;2022-11-14T08:47:03;101428.03;;;7.37
74060;BMP280;62414;53.436;8.828;2022-11-14T08:49:47;101424.94;;;7.39
74060;BMP280;62414;53.436;8.828;2022-11-14T08:52:31;101418.03;;;7.41
74060;BMP280;62414;53.436;8.828;2022-11-14T08:55:16;101426.13;;;7.45
74060;BMP280;62414;53.436;8.828;2022-11-14T08:58:00;101428.75;;;7.48
74060;BMP280;62414;53.436;8.828;2022-11-14T09:00:44;101421.88;;;7.44
74060;BMP280;62414;53.436;8.828;2022-11-14T09:03:28;101423.00;;;7.50
74060;BMP280;62414;53.436;8.828;2022-11-14T09:06:11;101418.75;;;7.52
74060;BMP280;62414;53.436;8.828;2022-11-14T09:08:55;101415.31;;;7.56
74060;BMP280;62414;53.436;8.828;2022-11-14T09:11:42;101406.41;;;7.62
74060;BMP280;62414;53.436;8.828;2022-11-14T09:14:26;101412.22;;;7.57
74060;BMP280;62414;53.436;8.828;2022-11-14T09:17:10;101418.38;;;7.58
74060;BMP280;62414;53.436;8.828;2022-11-14T09:19:54;101419.50;;;7.64
74060;BMP280;62414;53.436;8.828;2022-11-14T09:22:38;101420.28;;;7.57
74060;BMP280;62414;53.436;8.828;2022-11-14T09:25:22;101412.97;;;7.61
74060;BMP280;62414;53.436;8.828;2022-11-14T09:28:08;101425.28;;;7.62
74060;BMP280;62414;53.436;8.828;2022-11-14T09:30:52;101410.63;;;7.67
74060;BMP280;62414;53.436;8.828;2022-11-14T09:33:36;101405.97;;;7.71
74060;BMP280;62414;53.436;8.828;2022-11-14T09:36:21;101406.75;;;7.75
74060;BMP280;62414;53.436;8.828;2022-11-14T09:39:05;101411.75;;;7.73
74060;BMP280;62414;53.436;8.828;2022-11-14T09:42:00;101407.53;;;7.68
74060;BMP280;62414;53.436;8.828;2022-11-14T09:44:54;101406.81;;;7.64
74060;BMP280;62414;53.436;8.828;2022-11-14T09:47:42;101400.63;;;7.67
74060;BMP280;62414;53.436;8.828;2022-11-14T09:50:30;101398.31;;;7.69
74060;BMP280;62414;53.436;8.828;2022-11-14T09:53:21;101402.16;;;7.68
74060;BMP280;62414;53.436;8.828;2022-11-14T09:56:09;101401.38;;;7.75
74060;BMP280;62414;53.436;8.828;2022-11-14T09:58:54;101399.03;;;7.80
74060;BMP280;62414;53.436;8.828;2022-11-14T10:01:44;101398.94;;;7.95
74060;BMP280;62414;53.436;8.828;2022-11-14T10:04:44;101393.22;;;7.89
74060;BMP280;62414;53.436;8.828;2022-11-14T10:07:43;101386.56;;;8.08
74060;BMP280;62414;53.436;8.828;2022-11-14T10:10:39;101392.31;;;8.14
74060;BMP280;62414;53.436;8.828;2022-11-14T10:13:34;101400.81;;;8.05
74060;BMP280;62414;53.436;8.828;2022-11-14T10:16:27;101394.72;;;7.97
74060;BMP280;62414;53.436;8.828;2022-11-14T10:19:21;101390.06;;;8.01
74060;BMP280;62414;53.436;8.828;2022-11-14T10:22:17;101396.25;;;7.98
74060;BMP280;62414;53.436;8.828;2022-11-14T10:25:17;101385.06;;;8.00
74060;BMP280;62414;53.436;8.828;2022-11-14T10:28:15;101383.47;;;8.06
74060;BMP280;62414;53.436;8.828;2022-11-14T10:31:06;101384.22;;;8.10
74060;BMP280;62414;53.436;8.828;2022-11-14T10:33:58;101378.47;;;8.12
74060;BMP280;62414;53.436;8.828;2022-11-14T10:36:53;101380.31;;;8.15
74060;BMP280;62414;53.436;8.828;2022-11-14T10:39:44;101382.69;;;8.09
74060;BMP280;62414;53.436;8.828;2022-11-14T10:42:31;101377.22;;;8.20
74060;BMP280;62414;53.436;8.828;2022-11-14T10:45:22;101365.28;;;8.21
74060;BMP280;62414;53.436;8.828;2022-11-14T10:48:11;101372.63;;;8.17
74060;BMP280;62414;53.436;8.828;2022-11-14T10:50:58;101369.16;;;8.16
74060;BMP280;62414;53.436;8.828;2022-11-14T10:53:50;101360.34;;;8.08
74060;BMP280;62414;53.436;8.828;2022-11-14T10:56:44;101354.19;;;8.04
74060;BMP280;62414;53.436;8.828;2022-11-14T10:59:29;101348.78;;;8.12
74060;BMP280;62414;53.436;8.828;2022-11-14T11:02:13;101348.34;;;8.17
74060;BMP280;62414;53.436;8.828;2022-11-14T11:05:10;101346.34;;;8.24
74060;BMP280;62414;53.436;8.828;2022-11-14T11:07:58;101334.38;;;8.29
74060;BMP280;62414;53.436;8.828;2022-11-14T11:10:44;101332.06;;;8.31
74060;BMP280;62414;53.436;8.828;2022-11-14T11:13:32;101329.03;;;8.25
74060;BMP280;62414;53.436;8.828;2022-11-14T11:16:19;101328.56;;;8.34
74060;BMP280;62414;53.436;8.828;2022-11-14T11:19:13;101311.97;;;8.35
74060;BMP280;62414;53.436;8.828;2022-11-14T11:21:57;101316.97;;;8.37
74060;BMP280;62414;53.436;8.828;2022-11-14T11:24:41;101310.41;;;8.38
74060;BMP280;62414;53.436;8.828;2022-11-14T11:27:28;101309.53;;;8.48
74060;BMP280;62414;53.436;8.828;2022-11-14T11:30:17;101304.13;;;8.52
74060;BMP280;62414;53.436;8.828;2022-11-14T11:33:14;101295.69;;;8.46
74060;BMP280;62414;53.436;8.828;2022-11-14T11:36:00;101278.31;;;8.51
74060;BMP280;62414;53.436;8.828;2022-11-14T11:38:46;101287.19;;;8.48
74060;BMP280;62414;53.436;8.828;2022-11-14T11:41:32;101293.31;;;8.55
74060;BMP280;62414;53.436;8.828;2022-11-14T11:44:20;101296.00;;;8.55
74060;BMP280;62414;53.436;8.828;2022-11-14T11:47:09;101288.34;;;8.50
74060;BMP280;62414;53.436;8.828;2022-11-14T11:49:55;101283.78;;;8.44
74060;BMP280;62414;53.436;8.828;2022-11-14T11:52:45;101276.44;;;8.44
74060;BMP280;62414;53.436;8.828;2022-11-14T11:55:32;101275.94;;;8.56
74060;BMP280;62414;53.436;8.828;2022-11-14T11:58:21;101287.16;;;8.51
74060;BMP280;62414;53.436;8.828;2022-11-14T12:01:10;101289.09;;;8.51
74060;BMP280;62414;53.436;8.828;2022-11-14T12:03:54;101305.41;;;8.40
74060;BMP280;62414;53.436;8.828;2022-11-14T12:06:41;101296.91;;;8.38
74060;BMP280;62414;53.436;8.828;2022-11-14T12:09:32;101297.31;;;8.40
74060;BMP280;62414;53.436;8.828;2022-11-14T12:12:23;101287.66;;;8.39
74060;BMP280;62414;53.436;8.828;2022-11-14T12:15:16;101291.16;;;8.40
74060;BMP280;62414;53.436;8.828;2022-11-14T12:21:44;101301.44;;;8.48
74060;BMP280;62414;53.436;8.828;2022-11-14T12:24:49;101308.00;;;8.47
74060;BMP280;62414;53.436;8.828;2022-11-14T12:27:46;101285.34;;;8.45
74060;BMP280;62414;53.436;8.828;2022-11-14T12:30:38;101282.94;;;8.50
74060;BMP280;62414;53.436;8.828;2022-11-14T12:33:25;101275.38;;;8.72
74060;BMP280;62414;53.436;8.828;2022-11-14T12:36:12;101265.91;;;8.91
74060;BMP280;62414;53.436;8.828;2022-11-14T12:38:57;101279.50;;;8.84
74060;BMP280;62414;53.436;8.828;2022-11-14T12:41:41;101284.16;;;8.80
74060;BMP280;62414;53.436;8.828;2022-11-14T12:44:34;101279.09;;;8.85
74060;BMP280;62414;53.436;8.828;2022-11-14T12:47:21;101278.03;;;8.76
74060;BMP280;62414;53.436;8.828;2022-11-14T12:50:30;101271.75;;;8.86
74060;BMP280;62414;53.436;8.828;2022-11-14T12:53:41;101272.34;;;9.01
74060;BMP280;62414;53.436;8.828;2022-11-14T12:56:49;101266.38;;;9.16
74060;BMP280;62414;53.436;8.828;2022-11-14T12:59:49;101257.84;;;9.48
74060;BMP280;62414;53.436;8.828;2022-11-14T13:03:18;101261.47;;;9.62
74060;BMP280;62414;53.436;8.828;2022-11-14T13:06:08;101258.09;;;10.28
74060;BMP280;62414;53.436;8.828;2022-11-14T13:09:22;101259.84;;;10.58
74060;BMP280;62414;53.436;8.828;2022-11-14T13:12:24;101259.78;;;11.17
74060;BMP280;62414;53.436;8.828;2022-11-14T13:15:26;101256.16;;;11.56
74060;BMP280;62414;53.436;8.828;2022-11-14T13:18:14;101262.25;;;11.93
74060;BMP280;62414;53.436;8.828;2022-11-14T13:21:03;101255.00;;;12.32
74060;BMP280;62414;53.436;8.828;2022-11-14T13:23:54;101258.22;;;12.56
74060;BMP280;62414;53.436;8.828;2022-11-14T13:29:55;101260.69;;;12.92
74060;BMP280;62414;53.436;8.828;2022-11-14T13:33:00;101258.03;;;13.39
74060;BMP280;62414;53.436;8.828;2022-11-14T13:35:49;101241.59;;;13.55
74060;BMP280;62414;53.436;8.828;2022-11-14T13:39:04;101264.84;;;13.69
74060;BMP280;62414;53.436;8.828;2022-11-14T13:42:18;101271.75;;;13.48
74060;BMP280;62414;53.436;8.828;2022-11-14T13:45:23;101269.03;;;13.95
74060;BMP280;62414;53.436;8.828;2022-11-14T13:48:41;101262.31;;;14.09
74060;BMP280;62414;53.436;8.828;2022-11-14T13:51:30;101254.97;;;14.19
74060;BMP280;62414;53.436;8.828;2022-11-14T13:54:15;101242.00;;;14.54
74060;BMP280;62414;53.436;8.828;2022-11-14T13:57:06;101238.06;;;14.86
74060;BMP280;62414;53.436;8.828;2022-11-14T14:00:10;101234.38;;;15.38
74060;BMP280;62414;53.436;8.828;2022-11-14T14:03:17;101238.91;;;15.14
74060;BMP280;62414;53.436;8.828;2022-11-14T14:06:18;101236.13;;;14.96
74060;BMP280;62414;53.436;8.828;2022-11-14T14:09:16;101239.47;;;15.00
74060;BMP280;62414;53.436;8.828;2022-11-14T14:12:17;101224.41;;;14.46
74060;BMP280;62414;53.436;8.828;2022-11-14T14:15:27;101225.47;;;13.95
74060;BMP280;62414;53.436;8.828;2022-11-14T14:18:23;101223.00;;;12.39
74060;BMP280;62414;53.436;8.828;2022-11-14T14:21:20;101217.28;;;11.31
74060;BMP280;62414;53.436;8.828;2022-11-14T14:24:27;101197.22;;;10.16
74060;BMP280;62414;53.436;8.828;2022-11-14T14:27:19;101196.22;;;9.63
74060;BMP280;62414;53.436;8.828;2022-11-14T14:30:09;101186.63;;;9.35
74060;BMP280;62414;53.436;8.828;2022-11-14T14:33:10;101181.94;;;9.12
74060;BMP280;62414;53.436;8.828;2022-11-14T14:35:54;101177.84;;;9.01
74060;BMP280;62414;53.436;8.828;2022-11-14T14:38:38;101169.88;;;8.90
74060;BMP280;62414;53.436;8.828;2022-11-14T14:41:22;101178.25;;;8.69
74060;BMP280;62414;53.436;8.828;2022-11-14T14:44:18;101167.97;;;8.60
74060;BMP280;62414;53.436;8.828;2022-11-14T14:47:14;101169.97;;;8.52
74060;BMP280;62414;53.436;8.828;2022-11-14T14:50:02;101157.81;;;8.37
74060;BMP280;62414;53.436;8.828;2022-11-14T14:52:54;101162.50;;;8.33
74060;BMP280;62414;53.436;8.828;2022-11-14T14:55:39;101160.59;;;8.30
74060;BMP280;62414;53.436;8.828;2022-11-14T14:58:24;101162.94;;;8.24
74060;BMP280;62414;53.436;8.828;2022-11-14T15:01:11;101162.28;;;8.17
74060;BMP280;62414;53.436;8.828;2022-11-14T15:03:56;101146.47;;;8.15
74060;BMP280;62414;53.436;8.828;2022-11-14T15:06:46;101139.94;;;8.16
74060;BMP280;62414;53.436;8.828;2022-11-14T15:09:30;101149.25;;;8.12
74060;BMP280;62414;53.436;8.828;2022-11-14T15:12:14;101130.75;;;8.10
74060;BMP280;62414;53.436;8.828;2022-11-14T15:14:59;101135.41;;;8.06
74060;BMP280;62414;53.436;8.828;2022-11-14T15:17:44;101135.81;;;8.04
74060;BMP280;62414;53.436;8.828;2022-11-14T15:20:28;101135.91;;;7.97
74060;BMP280;62414;53.436;8.828;2022-11-14T15:23:19;101131.34;;;7.91
74060;BMP280;62414;53.436;8.828;2022-11-14T15:26:09;101125.59;;;7.89
74060;BMP280;62414;53.436;8.828;2022-11-14T15:29:03;101124.91;;;7.77
74060;BMP280;62414;53.436;8.828;2022-11-14T15:31:49;101120.69;;;7.73
74060;BMP280;62414;53.436;8.828;2022-11-14T15:34:36;101118.50;;;7.64
74060;BMP280;62414;53.436;8.828;2022-11-14T15:37:21;101123.13;;;7.64
74060;BMP280;62414;53.436;8.828;2022-11-14T15:40:17;101129.69;;;7.59
74060;BMP280;62414;53.436;8.828;2022-11-14T15:46:37;101127.44;;;7.50
74060;BMP280;62414;53.436;8.828;2022-11-14T15:49:23;101125.97;;;7.46
74060;BMP280;62414;53.436;8.828;2022-11-14T15:52:17;101122.13;;;7.43
74060;BMP280;62414;53.436;8.828;2022-11-14T15:55:03;101119.06;;;7.41
74060;BMP280;62414;53.436;8.828;2022-11-14T15:57:53;101115.59;;;7.37
74060;BMP280;62414;53.436;8.828;2022-11-14T16:00:41;101105.25;;;7.36
74060;BMP280;62414;53.436;8.828;2022-11-14T16:03:27;101093.69;;;7.35
74060;BMP280;62414;53.436;8.828;2022-11-14T16:06:10;101097.19;;;7.32
74060;BMP280;62414;53.436;8.828;2022-11-14T16:08:54;101088.72;;;7.30
74060;BMP280;62414;53.436;8.828;2022-11-14T16:11:38;101086.81;;;7.31
74060;BMP280;62414;53.436;8.828;2022-11-14T16:14:24;101094.50;;;7.29